sensor_id;sensor_type;location;lat;lon;timestamp;P1;durP1;ratioP1;P2;durP2;ratioP2
64543;SDS011;50936;51.660;5.616;2022-10-19T00:01:16;12.82;;;4.60;;
64543;SDS011;50936;51.660;5.616;2022-10-19T00:03:50;15.32;;;4.13;;
64543;SDS011;50936;51.660;5.616;2022-10-19T00:06:24;11.45;;;4.13;;
64543;SDS011;50936;51.660;5.616;2022-10-19T00:08:59;14.38;;;5.15;;
64543;SDS011;50936;51.660;5.616;2022-10-19T00:11:35;12.85;;;4.32;;
64543;SDS011;50936;51.660;5.616;2022-10-19T00:14:07;10.73;;;4.10;;
64543;SDS011;50936;51.660;5.616;2022-10-19T00:16:39;9.55;;;3.95;;
64543;SDS011;50936;51.660;5.616;2022-10-19T00:19:07;18.83;;;4.20;;
64543;SDS011;50936;51.660;5.616;2022-10-19T00:21:47;15.38;;;4.53;;
64543;SDS011;50936;51.660;5.616;2022-10-19T00:24:19;10.82;;;4.55;;
64543;SDS011;50936;51.660;5.616;2022-10-19T00:26:46;11.40;;;4.65;;
64543;SDS011;50936;51.660;5.616;2022-10-19T00:29:14;9.35;;;4.22;;
64543;SDS011;50936;51.660;5.616;2022-10-19T00:31:41;12.85;;;4.32;;
64543;SDS011;50936;51.660;5.616;2022-10-19T00:34:08;16.38;;;4.20;;
64543;SDS011;50936;51.660;5.616;2022-10-19T00:36:37;12.90;;;4.45;;
64543;SDS011;50936;51.660;5.616;2022-10-19T00:39:07;11.48;;;4.15;;
64543;SDS011;50936;51.660;5.616;2022-10-19T00:41:38;10.55;;;4.47;;
64543;SDS011;50936;51.660;5.616;2022-10-19T00:46:39;16.63;;;4.43;;
64543;SDS011;50936;51.660;5.616;2022-10-19T00:49:22;13.18;;;4.65;;
64543;SDS011;50936;51.660;5.616;2022-10-19T00:51:56;9.20;;;4.30;;
64543;SDS011;50936;51.660;5.616;2022-10-19T00:54:33;17.52;;;4.78;;
64543;SDS011;50936;51.660;5.616;2022-10-19T00:57:06;11.05;;;4.38;;
64543;SDS011;50936;51.660;5.616;2022-10-19T00:59:35;11.88;;;4.40;;
64543;SDS011;50936;51.660;5.616;2022-10-19T01:02:05;12.40;;;4.97;;
64543;SDS011;50936;51.660;5.616;2022-10-19T01:04:33;11.55;;;4.80;;
64543;SDS011;50936;51.660;5.616;2022-10-19T01:07:04;8.73;;;4.70;;
64543;SDS011;50936;51.660;5.616;2022-10-19T01:09:33;15.85;;;4.80;;
64543;SDS011;50936;51.660;5.616;2022-10-19T01:18:05;13.55;;;4.80;;
64543;SDS011;50936;51.660;5.616;2022-10-19T01:32:43;19.92;;;5.45;;
64543;SDS011;50936;51.660;5.616;2022-10-19T01:35:47;13.15;;;4.55;;
64543;SDS011;50936;51.660;5.616;2022-10-19T01:38:26;14.68;;;5.15;;
64543;SDS011;50936;51.660;5.616;2022-10-19T01:46:37;12.10;;;5.22;;
64543;SDS011;50936;51.660;5.616;2022-10-19T01:49:20;11.60;;;5.30;;
64543;SDS011;50936;51.660;5.616;2022-10-19T01:52:01;13.15;;;5.18;;
64543;SDS011;50936;51.660;5.616;2022-10-19T01:54:35;12.15;;;5.18;;
64543;SDS011;50936;51.660;5.616;2022-10-19T01:57:10;10.35;;;5.20;;
64543;SDS011;50936;51.660;5.616;2022-10-19T01:59:43;15.80;;;5.30;;
64543;SDS011;50936;51.660;5.616;2022-10-19T02:02:13;17.88;;;5.70;;
64543;SDS011;50936;51.660;5.616;2022-10-19T02:04:43;13.00;;;5.03;;
64543;SDS011;50936;51.660;5.616;2022-10-19T02:07:13;16.27;;;5.22;;
64543;SDS011;50936;51.660;5.616;2022-10-19T02:09:41;17.30;;;5.60;;
64543;SDS011;50936;51.660;5.616;2022-10-19T02:12:09;13.63;;;5.63;;
64543;SDS011;50936;51.660;5.616;2022-10-19T02:14:39;13.75;;;5.60;;
64543;SDS011;50936;51.660;5.616;2022-10-19T02:17:13;15.50;;;5.35;;
64543;SDS011;50936;51.660;5.616;2022-10-19T02:19:43;11.88;;;5.05;;
64543;SDS011;50936;51.660;5.616;2022-10-19T02:22:10;10.73;;;5.50;;
64543;SDS011;50936;51.660;5.616;2022-10-19T02:24:38;14.40;;;5.30;;
64543;SDS011;50936;51.660;5.616;2022-10-19T02:27:05;14.52;;;5.38;;
64543;SDS011;50936;51.660;5.616;2022-10-19T02:29:34;13.57;;;5.78;;
64543;SDS011;50936;51.660;5.616;2022-10-19T02:32:03;13.05;;;6.07;;
64543;SDS011;50936;51.660;5.616;2022-10-19T02:34:32;15.18;;;5.68;;
64543;SDS011;50936;51.660;5.616;2022-10-19T02:37:00;13.30;;;5.80;;
64543;SDS011;50936;51.660;5.616;2022-10-19T02:39:27;10.82;;;5.50;;
64543;SDS011;50936;51.660;5.616;2022-10-19T02:41:56;15.23;;;6.13;;
64543;SDS011;50936;51.660;5.616;2022-10-19T02:44:46;13.00;;;5.82;;
64543;SDS011;50936;51.660;5.616;2022-10-19T02:47:24;18.08;;;5.85;;
64543;SDS011;50936;51.660;5.616;2022-10-19T02:50:06;14.15;;;5.63;;
64543;SDS011;50936;51.660;5.616;2022-10-19T02:52:37;15.20;;;5.72;;
64543;SDS011;50936;51.660;5.616;2022-10-19T02:55:05;20.48;;;5.78;;
64543;SDS011;50936;51.660;5.616;2022-10-19T02:57:33;15.15;;;4.97;;
64543;SDS011;50936;51.660;5.616;2022-10-19T03:00:03;14.18;;;5.70;;
64543;SDS011;50936;51.660;5.616;2022-10-19T03:02:34;15.73;;;5.53;;
64543;SDS011;50936;51.660;5.616;2022-10-19T03:05:01;16.33;;;5.30;;
64543;SDS011;50936;51.660;5.616;2022-10-19T03:07:29;13.18;;;5.32;;
64543;SDS011;50936;51.660;5.616;2022-10-19T03:09:56;14.60;;;5.45;;
64543;SDS011;50936;51.660;5.616;2022-10-19T03:12:22;13.32;;;5.70;;
64543;SDS011;50936;51.660;5.616;2022-10-19T03:14:49;13.32;;;6.05;;
64543;SDS011;50936;51.660;5.616;2022-10-19T03:17:16;13.05;;;5.55;;
64543;SDS011;50936;51.660;5.616;2022-10-19T03:19:43;12.68;;;6.22;;
64543;SDS011;50936;51.660;5.616;2022-10-19T03:22:11;9.85;;;5.28;;
64543;SDS011;50936;51.660;5.616;2022-10-19T03:24:40;13.18;;;5.40;;
64543;SDS011;50936;51.660;5.616;2022-10-19T03:27:07;10.57;;;5.18;;
64543;SDS011;50936;51.660;5.616;2022-10-19T03:29:33;13.00;;;4.88;;
64543;SDS011;50936;51.660;5.616;2022-10-19T03:32:00;14.57;;;5.28;;
64543;SDS011;50936;51.660;5.616;2022-10-19T03:34:27;11.55;;;5.35;;
64543;SDS011;50936;51.660;5.616;2022-10-19T03:36:54;12.32;;;5.30;;
64543;SDS011;50936;51.660;5.616;2022-10-19T03:39:21;14.27;;;5.30;;
64543;SDS011;50936;51.660;5.616;2022-10-19T03:41:48;20.67;;;5.32;;
64543;SDS011;50936;51.660;5.616;2022-10-19T03:44:15;13.18;;;5.18;;
64543;SDS011;50936;51.660;5.616;2022-10-19T03:46:42;11.68;;;5.53;;
64543;SDS011;50936;51.660;5.616;2022-10-19T03:49:09;12.40;;;5.28;;
64543;SDS011;50936;51.660;5.616;2022-10-19T03:51:37;15.38;;;5.25;;
64543;SDS011;50936;51.660;5.616;2022-10-19T03:54:05;11.23;;;4.60;;
64543;SDS011;50936;51.660;5.616;2022-10-19T03:56:36;11.18;;;4.97;;
64543;SDS011;50936;51.660;5.616;2022-10-19T03:59:04;12.32;;;5.18;;
64543;SDS011;50936;51.660;5.616;2022-10-19T04:01:33;12.07;;;4.88;;
64543;SDS011;50936;51.660;5.616;2022-10-19T04:04:09;18.13;;;6.00;;
64543;SDS011;50936;51.660;5.616;2022-10-19T04:06:41;14.95;;;5.75;;
64543;SDS011;50936;51.660;5.616;2022-10-19T04:09:11;10.68;;;5.88;;
64543;SDS011;50936;51.660;5.616;2022-10-19T04:11:41;13.20;;;5.28;;
64543;SDS011;50936;51.660;5.616;2022-10-19T04:14:09;16.15;;;5.30;;
64543;SDS011;50936;51.660;5.616;2022-10-19T04:16:52;14.20;;;5.65;;
64543;SDS011;50936;51.660;5.616;2022-10-19T04:19:19;13.57;;;5.05;;
64543;SDS011;50936;51.660;5.616;2022-10-19T04:21:47;10.95;;;5.43;;
64543;SDS011;50936;51.660;5.616;2022-10-19T04:24:16;11.70;;;5.05;;
64543;SDS011;50936;51.660;5.616;2022-10-19T04:26:48;12.40;;;5.35;;
64543;SDS011;50936;51.660;5.616;2022-10-19T04:29:18;13.90;;;5.20;;
64543;SDS011;50936;51.660;5.616;2022-10-19T04:31:51;18.67;;;6.25;;
64543;SDS011;50936;51.660;5.616;2022-10-19T04:34:18;13.57;;;5.60;;
64543;SDS011;50936;51.660;5.616;2022-10-19T04:36:45;12.68;;;5.35;;
64543;SDS011;50936;51.660;5.616;2022-10-19T04:39:12;14.52;;;5.80;;
64543;SDS011;50936;51.660;5.616;2022-10-19T04:41:39;12.10;;;5.18;;
64543;SDS011;50936;51.660;5.616;2022-10-19T04:44:06;13.52;;;5.78;;
64543;SDS011;50936;51.660;5.616;2022-10-19T04:46:33;11.00;;;5.57;;
64543;SDS011;50936;51.660;5.616;2022-10-19T04:49:00;12.52;;;5.75;;
64543;SDS011;50936;51.660;5.616;2022-10-19T04:51:29;11.45;;;5.88;;
64543;SDS011;50936;51.660;5.616;2022-10-19T04:53:56;14.70;;;5.30;;
64543;SDS011;50936;51.660;5.616;2022-10-19T04:56:25;14.15;;;5.35;;
64543;SDS011;50936;51.660;5.616;2022-10-19T04:58:54;14.57;;;5.60;;
64543;SDS011;50936;51.660;5.616;2022-10-19T05:01:23;12.32;;;5.90;;
64543;SDS011;50936;51.660;5.616;2022-10-19T05:03:53;14.90;;;5.80;;
64543;SDS011;50936;51.660;5.616;2022-10-19T05:06:27;17.80;;;5.82;;
64543;SDS011;50936;51.660;5.616;2022-10-19T05:08:56;11.70;;;5.63;;
64543;SDS011;50936;51.660;5.616;2022-10-19T05:11:24;10.82;;;5.05;;
64543;SDS011;50936;51.660;5.616;2022-10-19T05:13:51;11.73;;;5.53;;
64543;SDS011;50936;51.660;5.616;2022-10-19T05:16:19;15.45;;;5.60;;
64543;SDS011;50936;51.660;5.616;2022-10-19T05:18:49;15.13;;;5.65;;
64543;SDS011;50936;51.660;5.616;2022-10-19T05:21:18;12.60;;;5.35;;
64543;SDS011;50936;51.660;5.616;2022-10-19T05:23:49;11.75;;;5.05;;
64543;SDS011;50936;51.660;5.616;2022-10-19T05:26:19;9.60;;;4.68;;
64543;SDS011;50936;51.660;5.616;2022-10-19T05:28:49;12.38;;;5.60;;
64543;SDS011;50936;51.660;5.616;2022-10-19T05:31:28;15.63;;;5.20;;
64543;SDS011;50936;51.660;5.616;2022-10-19T05:33:59;12.05;;;5.47;;
64543;SDS011;50936;51.660;5.616;2022-10-19T05:36:27;14.55;;;5.28;;
64543;SDS011;50936;51.660;5.616;2022-10-19T05:39:04;14.43;;;5.25;;
64543;SDS011;50936;51.660;5.616;2022-10-19T05:41:34;13.77;;;5.53;;
64543;SDS011;50936;51.660;5.616;2022-10-19T05:44:02;13.18;;;6.15;;
64543;SDS011;50936;51.660;5.616;2022-10-19T05:46:30;13.85;;;5.28;;
64543;SDS011;50936;51.660;5.616;2022-10-19T05:48:58;10.50;;;5.47;;
64543;SDS011;50936;51.660;5.616;2022-10-19T05:51:26;12.18;;;5.40;;
64543;SDS011;50936;51.660;5.616;2022-10-19T05:53:54;15.10;;;5.65;;
64543;SDS011;50936;51.660;5.616;2022-10-19T05:56:23;15.57;;;5.50;;
64543;SDS011;50936;51.660;5.616;2022-10-19T05:58:53;9.48;;;5.13;;
64543;SDS011;50936;51.660;5.616;2022-10-19T06:01:22;12.30;;;5.45;;
64543;SDS011;50936;51.660;5.616;2022-10-19T06:03:51;15.50;;;6.00;;
64543;SDS011;50936;51.660;5.616;2022-10-19T06:06:19;11.73;;;5.70;;
64543;SDS011;50936;51.660;5.616;2022-10-19T06:08:47;12.30;;;5.28;;
64543;SDS011;50936;51.660;5.616;2022-10-19T06:11:17;22.50;;;5.53;;
64543;SDS011;50936;51.660;5.616;2022-10-19T06:13:50;13.82;;;6.25;;
64543;SDS011;50936;51.660;5.616;2022-10-19T06:16:20;14.48;;;5.43;;
64543;SDS011;50936;51.660;5.616;2022-10-19T06:18:49;14.18;;;5.82;;
64543;SDS011;50936;51.660;5.616;2022-10-19T06:21:19;13.63;;;5.85;;
64543;SDS011;50936;51.660;5.616;2022-10-19T06:23:50;13.35;;;5.57;;
64543;SDS011;50936;51.660;5.616;2022-10-19T06:26:18;12.60;;;5.70;;
64543;SDS011;50936;51.660;5.616;2022-10-19T06:28:46;12.32;;;6.10;;
64543;SDS011;50936;51.660;5.616;2022-10-19T06:31:14;10.57;;;5.53;;
64543;SDS011;50936;51.660;5.616;2022-10-19T06:33:43;17.55;;;5.38;;
64543;SDS011;50936;51.660;5.616;2022-10-19T06:38:47;10.30;;;5.68;;
64543;SDS011;50936;51.660;5.616;2022-10-19T06:41:15;19.02;;;6.30;;
64543;SDS011;50936;51.660;5.616;2022-10-19T06:43:42;10.25;;;5.85;;
64543;SDS011;50936;51.660;5.616;2022-10-19T06:46:11;15.10;;;6.20;;
64543;SDS011;50936;51.660;5.616;2022-10-19T06:48:42;11.23;;;4.97;;
64543;SDS011;50936;51.660;5.616;2022-10-19T06:51:09;12.15;;;5.57;;
64543;SDS011;50936;51.660;5.616;2022-10-19T06:53:38;10.50;;;5.50;;
64543;SDS011;50936;51.660;5.616;2022-10-19T06:56:05;14.30;;;6.03;;
64543;SDS011;50936;51.660;5.616;2022-10-19T06:58:36;11.80;;;5.65;;
64543;SDS011;50936;51.660;5.616;2022-10-19T07:01:04;11.77;;;5.53;;
64543;SDS011;50936;51.660;5.616;2022-10-19T07:03:33;10.50;;;5.68;;
64543;SDS011;50936;51.660;5.616;2022-10-19T07:06:06;14.57;;;5.75;;
64543;SDS011;50936;51.660;5.616;2022-10-19T07:08:36;11.63;;;6.18;;
64543;SDS011;50936;51.660;5.616;2022-10-19T07:11:06;12.90;;;5.75;;
64543;SDS011;50936;51.660;5.616;2022-10-19T07:13:39;16.45;;;5.68;;
64543;SDS011;50936;51.660;5.616;2022-10-19T07:16:07;13.98;;;6.35;;
64543;SDS011;50936;51.660;5.616;2022-10-19T07:18:45;11.98;;;5.68;;
64543;SDS011;50936;51.660;5.616;2022-10-19T07:21:13;17.27;;;7.78;;
64543;SDS011;50936;51.660;5.616;2022-10-19T07:23:43;11.35;;;5.40;;
64543;SDS011;50936;51.660;5.616;2022-10-19T07:26:13;13.25;;;5.57;;
64543;SDS011;50936;51.660;5.616;2022-10-19T07:28:56;13.60;;;5.65;;
64543;SDS011;50936;51.660;5.616;2022-10-19T07:31:24;14.00;;;6.35;;
64543;SDS011;50936;51.660;5.616;2022-10-19T07:33:57;10.98;;;5.57;;
64543;SDS011;50936;51.660;5.616;2022-10-19T07:36:27;13.23;;;5.90;;
64543;SDS011;50936;51.660;5.616;2022-10-19T07:38:56;13.05;;;6.20;;
64543;SDS011;50936;51.660;5.616;2022-10-19T07:41:24;14.05;;;5.53;;
64543;SDS011;50936;51.660;5.616;2022-10-19T07:43:51;16.38;;;6.43;;
64543;SDS011;50936;51.660;5.616;2022-10-19T07:46:20;14.35;;;5.88;;
64543;SDS011;50936;51.660;5.616;2022-10-19T07:48:50;13.07;;;5.82;;
64543;SDS011;50936;51.660;5.616;2022-10-19T07:51:18;11.68;;;5.10;;
64543;SDS011;50936;51.660;5.616;2022-10-19T07:53:45;12.05;;;6.13;;
64543;SDS011;50936;51.660;5.616;2022-10-19T07:56:14;10.27;;;5.13;;
64543;SDS011;50936;51.660;5.616;2022-10-19T07:58:48;13.00;;;5.75;;
64543;SDS011;50936;51.660;5.616;2022-10-19T08:01:21;12.80;;;5.82;;
64543;SDS011;50936;51.660;5.616;2022-10-19T08:03:54;11.20;;;5.78;;
64543;SDS011;50936;51.660;5.616;2022-10-19T08:06:42;11.73;;;5.30;;
64543;SDS011;50936;51.660;5.616;2022-10-19T08:09:09;12.07;;;5.10;;
64543;SDS011;50936;51.660;5.616;2022-10-19T08:11:53;11.60;;;4.95;;
64543;SDS011;50936;51.660;5.616;2022-10-19T08:14:19;11.00;;;5.40;;
64543;SDS011;50936;51.660;5.616;2022-10-19T08:16:46;12.85;;;5.13;;
64543;SDS011;50936;51.660;5.616;2022-10-19T08:19:14;13.27;;;5.30;;
64543;SDS011;50936;51.660;5.616;2022-10-19T08:21:42;15.80;;;4.88;;
64543;SDS011;50936;51.660;5.616;2022-10-19T08:24:13;10.45;;;5.07;;
64543;SDS011;50936;51.660;5.616;2022-10-19T08:26:42;16.25;;;5.32;;
64543;SDS011;50936;51.660;5.616;2022-10-19T08:29:11;9.73;;;4.60;;
64543;SDS011;50936;51.660;5.616;2022-10-19T08:31:44;10.30;;;5.10;;
64543;SDS011;50936;51.660;5.616;2022-10-19T08:34:13;12.25;;;5.20;;
64543;SDS011;50936;51.660;5.616;2022-10-19T08:36:41;13.05;;;5.00;;
64543;SDS011;50936;51.660;5.616;2022-10-19T08:39:08;9.93;;;4.70;;
64543;SDS011;50936;51.660;5.616;2022-10-19T08:50:18;7.75;;;4.05;;
64543;SDS011;50936;51.660;5.616;2022-10-19T08:52:59;8.20;;;4.20;;
64543;SDS011;50936;51.660;5.616;2022-10-19T08:55:53;10.82;;;4.40;;
64543;SDS011;50936;51.660;5.616;2022-10-19T09:02:15;12.10;;;3.88;;
64543;SDS011;50936;51.660;5.616;2022-10-19T09:05:05;13.93;;;4.05;;
64543;SDS011;50936;51.660;5.616;2022-10-19T09:07:47;9.02;;;3.20;;
64543;SDS011;50936;51.660;5.616;2022-10-19T09:10:23;5.68;;;3.10;;
64543;SDS011;50936;51.660;5.616;2022-10-19T09:12:58;9.82;;;3.80;;
64543;SDS011;50936;51.660;5.616;2022-10-19T09:15:37;8.27;;;3.30;;
64543;SDS011;50936;51.660;5.616;2022-10-19T09:18:13;7.63;;;3.20;;
64543;SDS011;50936;51.660;5.616;2022-10-19T09:21:41;7.78;;;3.42;;
64543;SDS011;50936;51.660;5.616;2022-10-19T09:27:02;8.00;;;3.00;;
64543;SDS011;50936;51.660;5.616;2022-10-19T09:32:05;6.00;;;2.45;;
64543;SDS011;50936;51.660;5.616;2022-10-19T09:34:45;6.65;;;2.60;;
64543;SDS011;50936;51.660;5.616;2022-10-19T09:37:19;9.15;;;2.70;;
64543;SDS011;50936;51.660;5.616;2022-10-19T09:39:52;5.20;;;2.38;;
64543;SDS011;50936;51.660;5.616;2022-10-19T09:42:28;5.20;;;2.40;;
64543;SDS011;50936;51.660;5.616;2022-10-19T09:44:59;5.78;;;3.08;;
64543;SDS011;50936;51.660;5.616;2022-10-19T09:47:40;14.05;;;2.45;;
64543;SDS011;50936;51.660;5.616;2022-10-19T09:50:23;9.77;;;2.40;;
64543;SDS011;50936;51.660;5.616;2022-10-19T09:52:56;7.13;;;2.42;;
64543;SDS011;50936;51.660;5.616;2022-10-19T10:03:38;9.88;;;2.40;;
64543;SDS011;50936;51.660;5.616;2022-10-19T10:06:11;4.65;;;2.22;;
64543;SDS011;50936;51.660;5.616;2022-10-19T10:08:45;9.00;;;2.70;;
64543;SDS011;50936;51.660;5.616;2022-10-19T10:11:22;6.80;;;2.30;;
64543;SDS011;50936;51.660;5.616;2022-10-19T10:13:55;6.10;;;2.05;;
64543;SDS011;50936;51.660;5.616;2022-10-19T10:16:35;6.30;;;2.35;;
64543;SDS011;50936;51.660;5.616;2022-10-19T10:19:03;5.13;;;2.33;;
64543;SDS011;50936;51.660;5.616;2022-10-19T10:21:34;5.53;;;2.10;;
64543;SDS011;50936;51.660;5.616;2022-10-19T10:24:32;5.18;;;1.63;;
64543;SDS011;50936;51.660;5.616;2022-10-19T10:27:01;8.30;;;2.30;;
64543;SDS011;50936;51.660;5.616;2022-10-19T10:29:32;5.28;;;2.08;;
64543;SDS011;50936;51.660;5.616;2022-10-19T10:32:12;8.50;;;3.05;;
64543;SDS011;50936;51.660;5.616;2022-10-19T10:34:46;8.05;;;2.25;;
64543;SDS011;50936;51.660;5.616;2022-10-19T10:37:28;10.05;;;1.98;;
64543;SDS011;50936;51.660;5.616;2022-10-19T10:40:04;6.68;;;1.85;;
64543;SDS011;50936;51.660;5.616;2022-10-19T10:47:54;9.10;;;1.98;;
64543;SDS011;50936;51.660;5.616;2022-10-19T10:50:24;5.45;;;2.05;;
64543;SDS011;50936;51.660;5.616;2022-10-19T10:55:31;7.00;;;1.80;;
64543;SDS011;50936;51.660;5.616;2022-10-19T10:58:10;5.32;;;2.15;;
64543;SDS011;50936;51.660;5.616;2022-10-19T11:00:53;7.22;;;2.00;;
64543;SDS011;50936;51.660;5.616;2022-10-19T11:03:25;5.70;;;1.90;;
64543;SDS011;50936;51.660;5.616;2022-10-19T11:05:58;6.72;;;1.95;;
64543;SDS011;50936;51.660;5.616;2022-10-19T11:08:27;4.45;;;1.90;;
64543;SDS011;50936;51.660;5.616;2022-10-19T11:11:19;5.22;;;2.05;;
64543;SDS011;50936;51.660;5.616;2022-10-19T11:13:58;7.45;;;2.10;;
64543;SDS011;50936;51.660;5.616;2022-10-19T11:16:39;5.10;;;1.83;;
64543;SDS011;50936;51.660;5.616;2022-10-19T11:19:12;6.53;;;2.67;;
64543;SDS011;50936;51.660;5.616;2022-10-19T11:28:11;7.75;;;2.10;;
64543;SDS011;50936;51.660;5.616;2022-10-19T11:37:02;4.57;;;1.80;;
64543;SDS011;50936;51.660;5.616;2022-10-19T11:48:22;3.72;;;1.65;;
64543;SDS011;50936;51.660;5.616;2022-10-19T11:51:38;3.30;;;1.70;;
64543;SDS011;50936;51.660;5.616;2022-10-19T11:57:07;6.97;;;2.60;;
64543;SDS011;50936;51.660;5.616;2022-10-19T12:00:03;8.88;;;2.00;;
64543;SDS011;50936;51.660;5.616;2022-10-19T12:06:02;5.55;;;1.95;;
64543;SDS011;50936;51.660;5.616;2022-10-19T12:09:03;8.98;;;2.20;;
64543;SDS011;50936;51.660;5.616;2022-10-19T12:11:53;4.63;;;2.20;;
64543;SDS011;50936;51.660;5.616;2022-10-19T12:14:38;6.53;;;2.30;;
64543;SDS011;50936;51.660;5.616;2022-10-19T12:17:28;6.50;;;2.42;;
64543;SDS011;50936;51.660;5.616;2022-10-19T12:20:23;6.28;;;2.20;;
64543;SDS011;50936;51.660;5.616;2022-10-19T12:22:56;5.40;;;1.90;;
64543;SDS011;50936;51.660;5.616;2022-10-19T12:25:27;8.68;;;2.97;;
64543;SDS011;50936;51.660;5.616;2022-10-19T12:27:54;7.07;;;2.28;;
64543;SDS011;50936;51.660;5.616;2022-10-19T12:30:23;4.45;;;2.10;;
64543;SDS011;50936;51.660;5.616;2022-10-19T12:33:08;5.93;;;2.10;;
64543;SDS011;50936;51.660;5.616;2022-10-19T12:35:51;5.63;;;2.03;;
64543;SDS011;50936;51.660;5.616;2022-10-19T12:38:53;9.18;;;2.22;;
64543;SDS011;50936;51.660;5.616;2022-10-19T12:47:39;6.22;;;2.58;;
64543;SDS011;50936;51.660;5.616;2022-10-19T12:50:06;5.65;;;2.00;;
64543;SDS011;50936;51.660;5.616;2022-10-19T12:52:40;6.53;;;2.33;;
64543;SDS011;50936;51.660;5.616;2022-10-19T12:57:45;5.70;;;2.10;;
64543;SDS011;50936;51.660;5.616;2022-10-19T13:00:22;5.18;;;1.63;;
64543;SDS011;50936;51.660;5.616;2022-10-19T13:02:56;6.53;;;1.95;;
64543;SDS011;50936;51.660;5.616;2022-10-19T13:08:02;6.55;;;1.80;;
64543;SDS011;50936;51.660;5.616;2022-10-19T13:10:39;6.05;;;2.25;;
64543;SDS011;50936;51.660;5.616;2022-10-19T13:13:05;5.82;;;2.08;;
64543;SDS011;50936;51.660;5.616;2022-10-19T13:19:00;5.85;;;2.00;;
64543;SDS011;50936;51.660;5.616;2022-10-19T13:21:42;10.52;;;2.03;;
64543;SDS011;50936;51.660;5.616;2022-10-19T13:40:37;4.65;;;1.63;;
64543;SDS011;50936;51.660;5.616;2022-10-19T14:00:19;6.38;;;1.92;;
64543;SDS011;50936;51.660;5.616;2022-10-19T14:14:52;5.88;;;3.00;;
64543;SDS011;50936;51.660;5.616;2022-10-19T14:17:20;5.63;;;2.53;;
64543;SDS011;50936;51.660;5.616;2022-10-19T14:19:56;8.07;;;2.40;;
64543;SDS011;50936;51.660;5.616;2022-10-19T14:24:59;6.95;;;2.78;;
64543;SDS011;50936;51.660;5.616;2022-10-19T14:27:50;5.88;;;2.90;;
64543;SDS011;50936;51.660;5.616;2022-10-19T14:30:29;8.52;;;2.70;;
64543;SDS011;50936;51.660;5.616;2022-10-19T14:33:00;6.75;;;2.90;;
64543;SDS011;50936;51.660;5.616;2022-10-19T14:35:35;4.00;;;2.30;;
64543;SDS011;50936;51.660;5.616;2022-10-19T14:38:07;5.72;;;2.63;;
64543;SDS011;50936;51.660;5.616;2022-10-19T14:40:45;6.55;;;2.88;;
64543;SDS011;50936;51.660;5.616;2022-10-19T14:43:30;5.60;;;2.75;;
64543;SDS011;50936;51.660;5.616;2022-10-19T14:46:07;7.78;;;2.63;;
64543;SDS011;50936;51.660;5.616;2022-10-19T14:48:41;7.53;;;3.33;;
64543;SDS011;50936;51.660;5.616;2022-10-19T14:54:05;7.80;;;3.00;;
64543;SDS011;50936;51.660;5.616;2022-10-19T14:56:48;7.40;;;3.30;;
64543;SDS011;50936;51.660;5.616;2022-10-19T14:59:25;6.13;;;2.90;;
64543;SDS011;50936;51.660;5.616;2022-10-19T15:02:10;5.05;;;3.00;;
64543;SDS011;50936;51.660;5.616;2022-10-19T15:04:47;6.13;;;3.05;;
64543;SDS011;50936;51.660;5.616;2022-10-19T15:07:19;5.55;;;2.88;;
64543;SDS011;50936;51.660;5.616;2022-10-19T15:09:53;13.18;;;3.40;;
64543;SDS011;50936;51.660;5.616;2022-10-19T15:12:33;6.85;;;3.00;;
64543;SDS011;50936;51.660;5.616;2022-10-19T15:15:09;9.25;;;3.45;;
64543;SDS011;50936;51.660;5.616;2022-10-19T15:18:41;5.35;;;2.72;;
64543;SDS011;50936;51.660;5.616;2022-10-19T15:21:12;9.25;;;3.30;;
64543;SDS011;50936;51.660;5.616;2022-10-19T15:23:48;9.38;;;3.30;;
64543;SDS011;50936;51.660;5.616;2022-10-19T15:26:26;8.23;;;3.00;;
64543;SDS011;50936;51.660;5.616;2022-10-19T15:29:06;10.93;;;3.03;;
64543;SDS011;50936;51.660;5.616;2022-10-19T15:31:46;6.60;;;3.05;;
64543;SDS011;50936;51.660;5.616;2022-10-19T15:34:21;8.55;;;3.25;;
64543;SDS011;50936;51.660;5.616;2022-10-19T15:36:57;8.70;;;3.10;;
64543;SDS011;50936;51.660;5.616;2022-10-19T15:39:32;8.77;;;3.47;;
64543;SDS011;50936;51.660;5.616;2022-10-19T15:50:52;8.05;;;3.25;;
64543;SDS011;50936;51.660;5.616;2022-10-19T15:53:21;8.35;;;3.58;;
64543;SDS011;50936;51.660;5.616;2022-10-19T15:55:48;8.40;;;3.38;;
64543;SDS011;50936;51.660;5.616;2022-10-19T15:58:15;8.35;;;3.63;;
64543;SDS011;50936;51.660;5.616;2022-10-19T16:00:43;8.88;;;3.45;;
64543;SDS011;50936;51.660;5.616;2022-10-19T16:03:10;8.52;;;3.53;;
64543;SDS011;50936;51.660;5.616;2022-10-19T16:05:36;6.93;;;3.30;;
64543;SDS011;50936;51.660;5.616;2022-10-19T16:08:04;11.35;;;3.50;;
64543;SDS011;50936;51.660;5.616;2022-10-19T16:10:36;8.13;;;3.10;;
64543;SDS011;50936;51.660;5.616;2022-10-19T16:13:03;5.75;;;3.03;;
64543;SDS011;50936;51.660;5.616;2022-10-19T16:15:30;8.40;;;3.42;;
64543;SDS011;50936;51.660;5.616;2022-10-19T16:17:58;9.80;;;3.60;;
64543;SDS011;50936;51.660;5.616;2022-10-19T16:20:26;9.32;;;4.03;;
64543;SDS011;50936;51.660;5.616;2022-10-19T16:22:55;9.75;;;3.85;;
64543;SDS011;50936;51.660;5.616;2022-10-19T16:25:22;11.85;;;3.85;;
64543;SDS011;50936;51.660;5.616;2022-10-19T16:27:49;8.15;;;4.25;;
64543;SDS011;50936;51.660;5.616;2022-10-19T16:30:16;9.73;;;4.30;;
64543;SDS011;50936;51.660;5.616;2022-10-19T16:32:45;13.13;;;5.13;;
64543;SDS011;50936;51.660;5.616;2022-10-19T16:35:14;10.32;;;4.88;;
64543;SDS011;50936;51.660;5.616;2022-10-19T16:37:41;8.38;;;4.30;;
64543;SDS011;50936;51.660;5.616;2022-10-19T16:40:08;11.65;;;4.80;;
64543;SDS011;50936;51.660;5.616;2022-10-19T16:42:35;8.00;;;4.28;;
64543;SDS011;50936;51.660;5.616;2022-10-19T16:45:03;9.48;;;4.07;;
64543;SDS011;50936;51.660;5.616;2022-10-19T16:47:30;9.23;;;3.92;;
64543;SDS011;50936;51.660;5.616;2022-10-19T16:49:57;8.75;;;3.97;;
64543;SDS011;50936;51.660;5.616;2022-10-19T16:52:27;7.78;;;4.15;;
64543;SDS011;50936;51.660;5.616;2022-10-19T16:54:57;8.10;;;3.75;;
64543;SDS011;50936;51.660;5.616;2022-10-19T16:57:25;8.50;;;4.32;;
64543;SDS011;50936;51.660;5.616;2022-10-19T16:59:52;5.40;;;3.20;;
64543;SDS011;50936;51.660;5.616;2022-10-19T17:02:20;7.07;;;3.33;;
64543;SDS011;50936;51.660;5.616;2022-10-19T17:04:48;8.90;;;3.60;;
64543;SDS011;50936;51.660;5.616;2022-10-19T17:07:15;9.90;;;3.53;;
64543;SDS011;50936;51.660;5.616;2022-10-19T17:09:42;6.72;;;3.40;;
64543;SDS011;50936;51.660;5.616;2022-10-19T17:12:10;7.43;;;3.53;;
64543;SDS011;50936;51.660;5.616;2022-10-19T17:14:38;5.95;;;3.33;;
64543;SDS011;50936;51.660;5.616;2022-10-19T17:17:07;7.45;;;3.42;;
64543;SDS011;50936;51.660;5.616;2022-10-19T17:19:36;8.77;;;3.70;;
64543;SDS011;50936;51.660;5.616;2022-10-19T17:22:03;6.45;;;3.53;;
64543;SDS011;50936;51.660;5.616;2022-10-19T17:24:30;6.35;;;3.28;;
64543;SDS011;50936;51.660;5.616;2022-10-19T17:26:59;8.02;;;3.42;;
64543;SDS011;50936;51.660;5.616;2022-10-19T17:29:28;8.98;;;3.30;;
64543;SDS011;50936;51.660;5.616;2022-10-19T17:31:56;9.73;;;3.38;;
64543;SDS011;50936;51.660;5.616;2022-10-19T17:34:23;6.85;;;3.05;;
64543;SDS011;50936;51.660;5.616;2022-10-19T17:36:50;9.00;;;3.47;;
64543;SDS011;50936;51.660;5.616;2022-10-19T17:39:19;7.22;;;3.33;;
64543;SDS011;50936;51.660;5.616;2022-10-19T17:41:55;11.88;;;3.38;;
64543;SDS011;50936;51.660;5.616;2022-10-19T17:44:27;5.93;;;3.10;;
64543;SDS011;50936;51.660;5.616;2022-10-19T17:46:56;7.47;;;3.17;;
64543;SDS011;50936;51.660;5.616;2022-10-19T17:49:24;7.22;;;3.25;;
64543;SDS011;50936;51.660;5.616;2022-10-19T17:51:51;6.88;;;3.53;;
64543;SDS011;50936;51.660;5.616;2022-10-19T17:54:18;12.10;;;3.33;;
64543;SDS011;50936;51.660;5.616;2022-10-19T17:56:45;7.80;;;3.30;;